Time;durP1;ratioP1;P1;durP2;ratioP2;P2;SDS_P1;SDS_P2;PMS_P1;PMS_P2;Temp;Humidity;BMP_temperature;BMP_pressure;BME280_temperature;BME280_humidity;BME280_pressure;Samples;Min_cycle;Max_cycle;Signal;HPM_P1;HPM_P2
2023/05/24 00:00:31;;;;;;;4.82;3.40;;;;;;;25.74;44.08;99415.09;4260402;33;33477;-64
2023/05/24 00:02:59;;;;;;;5.70;3.35;;;;;;;25.73;44.05;99405.22;4260107;33;33716;-64
2023/05/24 00:05:29;;;;;;;6.93;3.80;;;;;;;25.74;44.05;99414.25;4260330;33;34042;-64
2023/05/24 00:07:58;;;;;;;4.72;3.42;;;;;;;25.72;44.01;99411.78;4260523;33;33998;-64
2023/05/24 00:10:25;;;;;;;6.65;3.95;;;;;;;25.72;43.93;99403.56;4260109;33;33880;-64
2023/05/24 00:12:53;;;;;;;5.87;4.10;;;;;;;25.73;43.88;99398.94;4260389;33;33422;-64
2023/05/24 00:15:20;;;;;;;6.22;3.65;;;;;;;25.72;43.81;99397.28;4260225;33;33494;-63
2023/05/24 00:17:48;;;;;;;8.75;3.72;;;;;;;25.70;43.78;99401.09;4258938;33;34400;-63
2023/05/24 00:20:16;;;;;;;5.93;3.87;;;;;;;25.70;43.71;99397.53;4260221;33;33975;-63
2023/05/24 00:22:43;;;;;;;5.53;3.72;;;;;;;25.70;43.65;99394.81;4258192;33;33314;-63
2023/05/24 00:25:11;;;;;;;5.50;3.72;;;;;;;25.69;43.63;99402.19;4260111;33;33861;-63
2023/05/24 00:27:38;;;;;;;5.75;4.18;;;;;;;25.70;43.61;99397.53;4259028;33;34749;-63
2023/05/24 00:30:06;;;;;;;5.55;3.67;;;;;;;25.68;43.60;99392.31;4260547;33;33718;-63
2023/05/24 00:32:34;;;;;;;4.40;3.15;;;;;;;25.68;43.64;99394.22;4259998;33;33529;-63
2023/05/24 00:35:03;;;;;;;6.28;4.00;;;;;;;25.67;43.73;99387.09;4260053;33;33829;-63
2023/05/24 00:37:31;;;;;;;6.25;3.72;;;;;;;25.67;43.64;99387.94;4260103;33;33865;-63
2023/05/24 00:39:59;;;;;;;4.55;3.08;;;;;;;25.67;43.59;99384.37;4260026;33;33773;-63
2023/05/24 00:42:27;;;;;;;6.25;3.62;;;;;;;25.65;43.62;99379.19;4260184;33;33887;-63
2023/05/24 00:44:55;;;;;;;5.45;3.47;;;;;;;25.65;43.57;99386.53;4260039;33;34583;-63
2023/05/24 00:47:23;;;;;;;5.95;3.80;;;;;;;25.66;43.56;99380.00;4259942;33;33855;-63
2023/05/24 00:49:50;;;;;;;5.53;3.80;;;;;;;25.66;43.55;99385.47;4260010;33;33930;-64
2023/05/24 00:52:18;;;;;;;5.62;3.55;;;;;;;25.65;43.55;99381.09;4260074;33;32916;-63
2023/05/24 00:54:45;;;;;;;7.68;3.78;;;;;;;25.64;43.56;99382.97;4259017;33;33730;-63
2023/05/24 00:57:13;;;;;;;6.75;4.12;;;;;;;25.64;43.58;99382.13;4259873;33;34680;-63
2023/05/24 00:59:40;;;;;;;5.30;3.60;;;;;;;25.62;43.57;99396.06;4247233;33;34021;-63
2023/05/24 01:02:09;;;;;;;6.57;3.97;;;;;;;25.62;43.56;99396.06;4247057;33;33356;-64
2023/05/24 01:04:37;;;;;;;7.55;4.30;;;;;;;25.62;43.56;99387.03;4248819;33;34508;-64
2023/05/24 01:07:25;;;;;;;7.53;4.57;;;;;;;25.60;43.57;99395.50;4245725;33;34557;-63
2023/05/24 01:10:09;;;;;;;5.87;3.80;;;;;;;25.60;43.62;99397.38;4245761;33;34839;-63
2023/05/24 01:12:48;;;;;;;6.18;4.00;;;;;;;25.63;43.59;99394.97;4244325;33;33161;-63
2023/05/24 01:15:21;;;;;;;7.00;4.53;;;;;;;25.61;43.61;99390.84;4245644;33;34612;-63
2023/05/24 01:18:01;;;;;;;7.25;3.87;;;;;;;25.59;43.65;99380.16;4244323;33;34106;-63
2023/05/24 01:20:32;;;;;;;5.68;3.92;;;;;;;25.59;43.65;99393.00;4232867;33;34592;-63
2023/05/24 01:23:44;;;;;;;7.37;3.95;;;;;;;25.59;43.62;99385.63;4244236;33;33336;-64
2023/05/24 01:26:30;;;;;;;6.05;3.97;;;;;;;25.62;43.57;99381.56;4201307;34;34759;-64
2023/05/24 01:28:58;;;;;;;5.82;4.12;;;;;;;25.57;43.62;99374.13;4201267;34;33880;-64
2023/05/24 01:31:26;;;;;;;7.00;4.65;;;;;;;25.57;43.66;99382.31;4211339;33;33397;-63
2023/05/24 01:33:53;;;;;;;5.72;4.12;;;;;;;25.56;43.65;99374.41;4232963;33;33527;-63
2023/05/24 01:36:21;;;;;;;6.40;4.45;;;;;;;25.56;43.65;99386.13;4247105;33;34721;-64
2023/05/24 01:38:49;;;;;;;7.00;4.62;;;;;;;25.55;43.71;99368.06;4247043;33;33861;-64
2023/05/24 01:41:31;;;;;;;6.87;4.45;;;;;;;25.55;43.75;99370.81;4245822;33;34790;-64
2023/05/24 01:44:09;;;;;;;5.43;4.00;;;;;;;25.58;43.86;99372.22;4234399;33;33255;-63
2023/05/24 01:46:37;;;;;;;5.68;4.30;;;;;;;25.57;43.83;99360.47;4245945;33;33727;-63
2023/05/24 01:49:10;;;;;;;6.43;4.50;;;;;;;25.57;43.75;99365.12;4245807;33;34820;-63
2023/05/24 01:51:48;;;;;;;6.32;4.40;;;;;;;25.57;43.75;99365.12;4246962;33;33946;-63
2023/05/24 01:54:22;;;;;;;5.82;3.72;;;;;;;25.57;43.74;99365.94;4246936;33;34651;-64
2023/05/24 01:56:50;;;;;;;8.27;4.05;;;;;;;25.55;44.05;99361.78;4245501;33;34662;-64
2023/05/24 01:59:18;;;;;;;7.82;4.10;;;;;;;25.55;44.09;99362.59;4234198;33;33744;-63
2023/05/24 02:01:45;;;;;;;6.60;4.57;;;;;;;25.55;43.94;99361.78;4245774;33;33858;-63
2023/05/24 02:04:15;;;;;;;6.53;4.40;;;;;;;25.55;43.88;99367.25;4260708;33;33057;-63
2023/05/24 02:06:44;;;;;;;6.87;4.70;;;;;;;25.55;43.77;99365.34;4260967;33;33958;-63
2023/05/24 02:09:11;;;;;;;6.82;4.55;;;;;;;25.56;43.74;99368.94;4260909;33;33930;-63
2023/05/24 02:11:39;;;;;;;5.90;4.03;;;;;;;25.55;43.75;99369.97;4261003;33;35295;-63
2023/05/24 02:14:06;;;;;;;6.30;4.60;;;;;;;25.55;43.82;99373.53;4261098;33;33139;-63
2023/05/24 02:16:41;;;;;;;9.98;4.68;;;;;;;25.55;43.82;99364.50;4260859;33;34458;-64
2023/05/24 02:19:09;;;;;;;8.40;4.65;;;;;;;25.55;43.87;99372.72;4261035;33;34052;-64
2023/05/24 02:21:36;;;;;;;6.78;4.80;;;;;;;25.54;43.87;99371.06;4260976;33;34484;-63
2023/05/24 02:24:05;;;;;;;9.15;5.37;;;;;;;25.54;43.91;99371.88;4260772;33;33439;-63
2023/05/24 02:26:33;;;;;;;6.87;4.60;;;;;;;25.55;43.86;99367.25;4261039;33;34854;-63
2023/05/24 02:29:01;;;;;;;6.80;4.47;;;;;;;25.55;43.83;99370.81;4260922;33;34785;-63
2023/05/24 02:31:28;;;;;;;7.00;4.50;;;;;;;25.53;43.92;99364.78;4260842;33;34247;-63
2023/05/24 02:33:56;;;;;;;5.30;3.90;;;;;;;25.53;43.92;99367.50;4260914;33;33400;-64
2023/05/24 02:36:24;;;;;;;7.65;4.87;;;;;;;25.52;44.03;99365.88;4260928;33;34753;-64
2023/05/24 02:38:51;;;;;;;6.22;4.07;;;;;;;25.53;43.97;99364.78;4260949;33;34824;-64
2023/05/24 02:41:19;;;;;;;6.50;4.80;;;;;;;25.53;44.01;99356.59;4260920;33;34087;-64
2023/05/24 02:43:47;;;;;;;6.47;4.47;;;;;;;25.54;43.96;99360.13;4260868;33;33307;-63
2023/05/24 02:46:15;;;;;;;10.65;5.10;;;;;;;25.53;43.86;99355.75;4259071;33;33756;-63
2023/05/24 02:48:42;;;;;;;8.57;5.25;;;;;;;25.54;43.80;99351.94;4260941;33;33847;-64
2023/05/24 02:51:10;;;;;;;7.37;5.00;;;;;;;25.54;43.80;99349.22;4260887;33;33736;-64
2023/05/24 02:53:37;;;;;;;7.05;5.25;;;;;;;25.52;43.80;99346.75;4259566;33;33327;-63
2023/05/24 02:56:06;;;;;;;8.95;5.40;;;;;;;25.53;43.79;99348.38;4261026;33;33886;-63
2023/05/24 02:58:39;;;;;;;7.18;5.10;;;;;;;25.53;43.81;99350.28;4260897;33;34673;-63
2023/05/24 03:01:07;;;;;;;8.85;5.22;;;;;;;25.52;43.81;99354.94;4261035;33;34275;-63
2023/05/24 03:03:35;;;;;;;7.05;4.97;;;;;;;25.51;43.82;99356.03;4260547;33;34278;-64
2023/05/24 03:06:06;;;;;;;8.30;5.00;;;;;;;25.52;43.85;99354.13;4260820;33;33971;-64
2023/05/24 03:08:33;;;;;;;8.45;4.93;;;;;;;25.52;43.83;99351.38;4260977;33;34361;-63
2023/05/24 03:11:01;;;;;;;7.95;5.30;;;;;;;25.51;43.84;99352.44;4259833;33;33421;-63
2023/05/24 03:13:28;;;;;;;7.28;5.05;;;;;;;25.51;43.86;99360.63;4260760;33;33633;-64
2023/05/24 03:15:56;;;;;;;6.75;4.70;;;;;;;25.50;43.85;99358.97;4260708;33;34711;-64
2023/05/24 03:18:24;;;;;;;8.73;5.50;;;;;;;25.49;43.85;99360.87;4260702;33;34790;-64
2023/05/24 03:20:52;;;;;;;7.05;4.93;;;;;;;25.50;43.84;99373.47;4260749;33;34822;-64
2023/05/24 03:23:20;;;;;;;7.62;5.03;;;;;;;25.49;43.87;99363.63;4260612;33;33354;-63
2023/05/24 03:25:48;;;;;;;6.40;4.22;;;;;;;25.50;43.93;99368.00;4260894;33;33637;-64
2023/05/24 03:28:15;;;;;;;8.75;4.75;;;;;;;25.48;43.97;99370.16;4260390;33;33541;-63
2023/05/24 03:30:43;;;;;;;9.20;5.28;;;;;;;25.49;43.96;99369.09;4260575;33;34157;-63
2023/05/24 03:33:11;;;;;;;8.70;5.45;;;;;;;25.49;43.97;99363.63;4260581;33;33508;-63
2023/05/24 03:35:39;;;;;;;6.12;4.85;;;;;;;25.49;43.99;99362.81;4260419;33;34107;-64
2023/05/24 03:38:08;;;;;;;8.73;4.72;;;;;;;25.49;43.99;99371.81;4260872;33;33402;-64
2023/05/24 03:40:37;;;;;;;9.32;4.80;;;;;;;25.49;43.94;99376.47;4260597;33;34684;-63
2023/05/24 03:43:05;;;;;;;8.18;4.32;;;;;;;25.47;44.03;99375.91;4260688;33;32873;-68
2023/05/24 03:45:35;;;;;;;7.82;4.65;;;;;;;25.48;44.02;99372.91;4260598;33;32704;-67
2023/05/24 03:48:06;;;;;;;6.85;4.30;;;;;;;25.49;44.12;99374.56;4260422;33;33784;-68
2023/05/24 03:50:34;;;;;;;7.15;4.12;;;;;;;25.50;44.25;99386.31;4260528;33;33769;-68
2023/05/24 03:53:01;;;;;;;7.30;3.62;;;;;;;25.50;44.29;99387.12;4260648;33;33478;-68
2023/05/24 03:55:29;;;;;;;5.95;3.72;;;;;;;25.50;44.35;99387.12;4260205;33;33689;-68
2023/05/24 03:57:57;;;;;;;5.62;3.97;;;;;;;25.51;44.45;99393.41;4259388;33;34123;-63
2023/05/24 04:00:24;;;;;;;5.93;3.72;;;;;;;25.51;44.47;99391.53;4260407;33;33843;-63
2023/05/24 04:02:54;;;;;;;8.32;3.85;;;;;;;25.52;44.46;99397.81;4259576;33;34849;-63
2023/05/24 04:05:25;;;;;;;8.23;4.60;;;;;;;25.51;44.46;99394.25;4246265;33;33821;-64
2023/05/24 04:07:54;;;;;;;7.25;4.47;;;;;;;25.52;44.33;99393.19;4246247;33;33984;-63
2023/05/24 04:10:21;;;;;;;7.22;5.05;;;;;;;25.52;44.23;99390.44;4246072;33;33493;-63
2023/05/24 04:12:49;;;;;;;8.90;5.43;;;;;;;25.52;44.13;99392.34;4252840;33;33447;-63
2023/05/24 04:15:17;;;;;;;9.77;5.35;;;;;;;25.51;44.11;99390.69;4260261;33;34088;-63
2023/05/24 04:17:44;;;;;;;8.35;4.90;;;;;;;25.51;44.12;99401.59;4260422;33;33733;-63
2023/05/24 04:20:12;;;;;;;7.75;5.20;;;;;;;25.51;44.23;99405.19;4260351;33;34070;-63
2023/05/24 04:22:40;;;;;;;9.07;4.90;;;;;;;25.51;44.34;99405.19;4260012;33;34416;-63
2023/05/24 04:25:08;;;;;;;10.82;4.70;;;;;;;25.52;44.47;99406.00;4260090;33;34087;-63
2023/05/24 04:27:36;;;;;;;7.53;5.10;;;;;;;25.51;44.67;99402.47;4260177;33;33876;-63
2023/05/24 04:30:05;;;;;;;9.07;5.60;;;;;;;25.53;44.55;99410.41;4260275;33;33734;-63
2023/05/24 04:32:35;;;;;;;9.88;5.00;;;;;;;25.52;44.43;99406.00;4260000;33;33354;-68
2023/05/24 04:35:04;;;;;;;7.13;4.87;;;;;;;25.52;44.60;99411.47;4260219;33;33744;-68
2023/05/24 04:37:32;;;;;;;8.07;4.47;;;;;;;25.52;44.80;99412.31;4247481;33;34020;-68
2023/05/24 04:39:59;;;;;;;7.65;5.60;;;;;;;25.53;44.79;99415.84;4256172;33;33518;-68
2023/05/24 04:42:30;;;;;;;9.05;6.30;;;;;;;25.52;44.67;99412.31;4240279;33;32638;-68
2023/05/24 04:44:58;;;;;;;6.85;5.22;;;;;;;25.52;44.46;99415.03;4254463;33;33876;-68
2023/05/24 04:47:26;;;;;;;7.95;5.60;;;;;;;25.51;44.37;99418.84;4258838;33;34792;-68
2023/05/24 04:49:53;;;;;;;8.43;6.15;;;;;;;25.51;44.34;99410.66;4260118;33;33842;-68
2023/05/24 04:52:21;;;;;;;9.65;6.57;;;;;;;25.52;44.34;99415.03;4259937;33;33973;-68
2023/05/24 04:54:49;;;;;;;8.70;6.50;;;;;;;25.51;44.34;99412.53;4260088;33;34978;-68
2023/05/24 04:57:17;;;;;;;7.53;6.32;;;;;;;25.51;44.34;99421.59;4258940;33;33928;-68
2023/05/24 04:59:45;;;;;;;8.32;6.60;;;;;;;25.51;44.43;99416.13;4259606;33;34149;-68
2023/05/24 05:02:12;;;;;;;9.30;6.57;;;;;;;25.51;44.44;99418.00;4260141;33;33402;-68
2023/05/24 05:04:40;;;;;;;8.73;6.37;;;;;;;25.51;44.42;99412.53;4248342;33;33993;-68
2023/05/24 05:07:08;;;;;;;11.00;6.50;;;;;;;25.49;44.46;99418.25;4245615;33;35009;-69
2023/05/24 05:09:35;;;;;;;10.10;6.43;;;;;;;25.48;44.57;99419.34;4253198;33;34684;-68
2023/05/24 05:12:03;;;;;;;8.85;6.25;;;;;;;25.49;44.73;99423.72;4259834;33;34501;-68
2023/05/24 05:14:31;;;;;;;9.57;7.18;;;;;;;25.47;44.73;99425.88;4246856;33;33950;-68
2023/05/24 05:16:58;;;;;;;11.10;6.68;;;;;;;25.46;44.75;99424.22;4259802;33;34468;-68
2023/05/24 05:19:26;;;;;;;12.27;7.40;;;;;;;25.45;44.93;99433.47;4259766;33;34084;-68
2023/05/24 05:21:54;;;;;;;7.95;6.50;;;;;;;25.45;44.82;99428.84;4259663;33;33552;-68
2023/05/24 05:24:21;;;;;;;10.68;7.22;;;;;;;25.45;44.77;99444.41;4259638;33;33961;-68
2023/05/24 05:26:49;;;;;;;11.93;6.78;;;;;;;25.44;44.78;99438.13;4259892;33;34025;-68
2023/05/24 05:29:16;;;;;;;11.85;6.50;;;;;;;25.44;44.78;99438.13;4257899;33;33664;-69
2023/05/24 05:31:44;;;;;;;11.07;6.85;;;;;;;25.44;44.79;99435.38;4259639;33;33108;-68
2023/05/24 05:34:12;;;;;;;9.48;7.05;;;;;;;25.44;44.79;99435.38;4243933;33;34862;-68
2023/05/24 05:36:41;;;;;;;10.88;7.32;;;;;;;25.44;44.78;99449.03;4250600;33;34593;-68
2023/05/24 05:39:08;;;;;;;9.85;6.43;;;;;;;25.45;44.75;99447.13;4249747;33;34521;-68
2023/05/24 05:41:37;;;;;;;10.13;7.28;;;;;;;25.44;44.73;99443.59;4245247;33;34561;-68
2023/05/24 05:44:05;;;;;;;9.50;6.82;;;;;;;25.45;44.81;99455.34;4245111;33;34451;-68
2023/05/24 05:46:33;;;;;;;9.70;6.47;;;;;;;25.44;44.88;99454.50;4245230;33;34010;-68
2023/05/24 05:49:00;;;;;;;9.07;6.28;;;;;;;25.44;44.82;99451.78;4245147;33;34539;-69
2023/05/24 05:51:28;;;;;;;10.32;6.93;;;;;;;25.44;44.79;99459.16;4245090;33;33540;-68
2023/05/24 05:53:55;;;;;;;12.55;6.72;;;;;;;25.44;44.79;99464.62;4245126;33;34622;-68
2023/05/24 05:56:23;;;;;;;9.50;7.20;;;;;;;25.43;44.87;99458.31;4252007;33;34011;-68
2023/05/24 05:58:51;;;;;;;8.55;6.90;;;;;;;25.44;44.83;99461.88;4251946;33;34218;-68
2023/05/24 06:01:18;;;;;;;9.52;6.70;;;;;;;25.44;44.80;99461.88;4257137;33;33566;-68
2023/05/24 06:03:46;;;;;;;9.73;6.80;;;;;;;25.45;44.77;99469.00;4250722;33;33978;-68
2023/05/24 06:06:14;;;;;;;9.05;6.15;;;;;;;25.44;44.78;99464.62;4251817;33;33701;-68
2023/05/24 06:08:41;;;;;;;10.55;7.25;;;;;;;25.44;44.78;99467.34;4252196;33;33393;-68
2023/05/24 06:11:09;;;;;;;8.68;6.82;;;;;;;25.44;44.78;99461.88;4257233;33;33378;-68
2023/05/24 06:13:37;;;;;;;11.95;6.50;;;;;;;25.44;44.77;99464.62;4258950;33;33745;-69
2023/05/24 06:16:07;;;;;;;10.98;6.00;;;;;;;25.45;44.76;99469.00;4259032;33;34823;-69
2023/05/24 06:18:37;;;;;;;11.35;6.47;;;;;;;25.44;44.73;99464.62;4259080;33;33642;-68
2023/05/24 06:21:09;;;;;;;12.23;6.33;;;;;;;25.45;44.75;99469.00;4259495;33;33404;-68
2023/05/24 06:23:36;;;;;;;8.65;6.40;;;;;;;25.45;44.70;99472.53;4260914;33;33881;-68
2023/05/24 06:26:05;;;;;;;13.50;7.55;;;;;;;25.45;44.70;99469.00;4260802;33;33955;-68
2023/05/24 06:28:33;;;;;;;9.93;7.18;;;;;;;25.44;44.80;99472.81;4260994;33;33975;-68
2023/05/24 06:31:01;;;;;;;16.02;7.28;;;;;;;25.44;44.83;99470.06;4260992;33;34145;-68
2023/05/24 06:33:30;;;;;;;14.48;7.65;;;;;;;25.44;44.90;99483.72;4260761;33;34319;-68
2023/05/24 06:35:58;;;;;;;9.03;5.73;;;;;;;25.42;44.97;99488.63;4248101;33;34846;-68
2023/05/24 06:38:26;;;;;;;10.77;7.22;;;;;;;25.43;45.04;99479.34;4259762;33;33884;-68
2023/05/24 06:40:54;;;;;;;10.02;7.37;;;;;;;25.42;45.00;99483.16;4260610;33;33362;-68
2023/05/24 06:43:22;;;;;;;10.45;6.90;;;;;;;25.42;44.96;99477.69;4236311;33;33724;-68
2023/05/24 06:45:49;;;;;;;9.10;6.72;;;;;;;25.39;45.07;99483.66;4260766;33;33629;-69
2023/05/24 06:48:17;;;;;;;10.45;7.03;;;;;;;25.38;45.14;99484.72;4260649;33;34125;-68
2023/05/24 06:50:45;;;;;;;10.07;7.03;;;;;;;25.38;45.12;99492.94;4260814;33;34398;-68
2023/05/24 06:53:13;;;;;;;9.35;6.57;;;;;;;25.37;45.09;99485.81;4260815;33;33500;-68
2023/05/24 06:55:41;;;;;;;10.50;7.75;;;;;;;25.37;45.13;99497.56;4247676;33;34042;-68
2023/05/24 06:58:13;;;;;;;10.63;7.45;;;;;;;25.36;45.12;99504.06;4260768;33;34872;-68
2023/05/24 07:00:41;;;;;;;8.93;6.87;;;;;;;25.36;45.09;99500.50;4260765;33;33347;-68
2023/05/24 07:03:09;;;;;;;9.50;7.03;;;;;;;25.35;45.12;99512.53;4236541;33;33633;-68
2023/05/24 07:05:37;;;;;;;9.98;7.18;;;;;;;25.35;45.15;99502.44;4259780;33;34035;-69
2023/05/24 07:08:05;;;;;;;9.13;6.60;;;;;;;25.36;45.10;99505.97;4260774;33;34018;-68
2023/05/24 07:10:34;;;;;;;8.85;6.75;;;;;;;25.37;45.06;99513.13;4260855;33;33469;-68
2023/05/24 07:13:02;;;;;;;11.55;8.13;;;;;;;25.35;45.11;99507.88;4260532;33;33740;-68
2023/05/24 07:15:30;;;;;;;10.93;7.07;;;;;;;25.36;45.14;99514.16;4260826;33;34131;-68
2023/05/24 07:17:58;;;;;;;12.05;7.82;;;;;;;25.36;45.10;99514.16;4260708;33;34068;-68
2023/05/24 07:20:25;;;;;;;14.38;7.80;;;;;;;25.35;45.09;99521.53;4260633;33;33344;-67
2023/05/24 07:22:53;;;;;;;9.60;7.93;;;;;;;25.36;45.08;99519.63;4260519;33;33583;-67
2023/05/24 07:25:21;;;;;;;9.77;7.53;;;;;;;25.34;45.05;99530.81;4260833;33;33702;-68
2023/05/24 07:27:50;;;;;;;9.70;7.65;;;;;;;25.34;45.08;99527.25;4260700;33;34631;-68
2023/05/24 07:30:17;;;;;;;10.65;8.05;;;;;;;25.34;45.07;99533.53;4260686;33;33459;-67
2023/05/24 07:32:58;;;;;;;9.88;7.62;;;;;;;25.33;45.05;99529.16;4260460;33;33878;-67
2023/05/24 07:35:28;;;;;;;9.25;8.15;;;;;;;25.34;45.00;99530.00;4259307;33;34868;-67
2023/05/24 07:37:55;;;;;;;11.75;8.02;;;;;;;25.33;44.98;99531.06;4260330;33;34107;-67
2023/05/24 07:40:24;;;;;;;13.93;8.05;;;;;;;25.34;44.95;99524.53;4260533;33;33592;-68
2023/05/24 07:42:51;;;;;;;9.13;7.37;;;;;;;25.33;44.99;99522.88;4260429;33;33813;-68
2023/05/24 07:45:19;;;;;;;8.75;7.68;;;;;;;25.33;44.97;99523.69;4260390;33;33999;-68
2023/05/24 07:47:47;;;;;;;13.25;7.85;;;;;;;25.35;44.98;99531.62;4260434;33;34126;-68
2023/05/24 07:50:15;;;;;;;9.98;7.55;;;;;;;25.36;44.97;99530.56;4260256;33;34233;-68
2023/05/24 07:52:43;;;;;;;10.35;7.75;;;;;;;25.35;44.96;99531.62;4258013;33;33961;-67
2023/05/24 07:55:10;;;;;;;9.52;7.68;;;;;;;25.35;44.97;99529.72;4260327;33;34874;-64
2023/05/24 07:57:38;;;;;;;11.63;6.78;;;;;;;25.37;44.97;99534.97;4259938;33;33930;-68
2023/05/24 08:00:13;;;;;;;9.70;7.30;;;;;;;25.38;45.09;99533.88;4250090;33;34199;-68
2023/05/24 08:02:42;;;;;;;9.00;6.90;;;;;;;25.37;45.12;99535.78;4246172;33;34325;-68
2023/05/24 08:05:11;;;;;;;10.52;6.82;;;;;;;25.39;45.12;99541.00;4244830;33;33920;-68
2023/05/24 08:07:40;;;;;;;9.20;7.00;;;;;;;25.41;45.13;99536.13;4244832;33;34262;-68
2023/05/24 08:10:09;;;;;;;10.43;6.93;;;;;;;25.42;45.17;99533.16;4250548;33;33628;-68
2023/05/24 08:12:37;;;;;;;12.57;7.47;;;;;;;25.43;45.15;99539.44;4260352;33;33828;-68
2023/05/24 08:15:05;;;;;;;10.80;8.50;;;;;;;25.44;45.12;99532.91;4260307;33;33897;-68
2023/05/24 08:17:33;;;;;;;11.35;8.55;;;;;;;25.44;45.04;99531.00;4260262;33;33613;-68
2023/05/24 08:20:04;;;;;;;10.18;6.87;;;;;;;25.44;45.01;99533.72;4260258;33;33104;-68
2023/05/24 08:22:32;;;;;;;10.98;7.47;;;;;;;25.45;45.03;99545.47;4260203;33;34261;-68
2023/05/24 08:25:00;;;;;;;10.02;8.05;;;;;;;25.46;45.06;99544.44;4260028;33;34503;-68
2023/05/24 08:27:29;;;;;;;9.80;7.95;;;;;;;25.48;45.03;99560.56;4260109;33;33827;-68
2023/05/24 08:29:56;;;;;;;14.95;7.85;;;;;;;25.45;45.01;99549.03;4260229;33;34282;-68
2023/05/24 08:32:24;;;;;;;9.70;8.05;;;;;;;25.48;44.97;99564.13;4260007;33;34784;-68
2023/05/24 08:34:52;;;;;;;11.25;8.55;;;;;;;25.48;44.92;99557.81;4260269;33;33375;-67
2023/05/24 08:37:33;;;;;;;11.20;8.27;;;;;;;25.47;44.79;99554.28;4260221;33;34734;-68
2023/05/24 08:40:01;;;;;;;10.85;7.95;;;;;;;25.48;44.70;99563.28;4260112;33;33156;-67
2023/05/24 08:42:29;;;;;;;10.07;7.78;;;;;;;25.48;44.64;99566.84;4260041;33;33792;-67
2023/05/24 08:45:08;;;;;;;11.57;8.30;;;;;;;25.47;44.67;99561.63;4246579;33;33526;-68
2023/05/24 08:47:36;;;;;;;15.20;7.57;;;;;;;25.48;44.71;99558.66;4266160;33;33601;-67
2023/05/24 08:50:04;;;;;;;13.07;7.62;;;;;;;25.49;44.59;99563.03;4258867;33;32116;-68
2023/05/24 08:52:31;;;;;;;11.10;7.00;;;;;;;25.49;44.48;99573.97;4259793;33;34689;-67
2023/05/24 08:55:00;;;;;;;12.07;7.72;;;;;;;25.48;44.34;99572.31;4258849;33;34694;-67
2023/05/24 08:57:27;;;;;;;12.57;6.90;;;;;;;25.47;44.28;99570.66;4259832;33;33831;-68
2023/05/24 08:59:55;;;;;;;13.07;7.43;;;;;;;25.46;44.25;99566.28;4259820;33;34299;-68
2023/05/24 09:02:23;;;;;;;12.25;7.03;;;;;;;25.47;44.25;99569.84;4260052;33;33490;-68
2023/05/24 09:04:51;;;;;;;11.77;7.07;;;;;;;25.46;44.33;99577.19;4259924;33;34388;-67
2023/05/24 09:07:22;;;;;;;13.82;7.50;;;;;;;25.48;44.42;99579.69;4259725;33;34513;-67
2023/05/24 09:09:59;;;;;;;10.07;6.97;;;;;;;25.48;44.37;99572.31;4258649;33;34232;-67
2023/05/24 09:12:29;;;;;;;10.82;6.87;;;;;;;25.50;44.23;99572.88;4259910;33;33795;-68
2023/05/24 09:15:06;;;;;;;12.32;6.68;;;;;;;25.49;44.26;99582.16;4269666;33;34066;-68
2023/05/24 09:17:36;;;;;;;7.50;5.72;;;;;;;25.51;44.31;99584.63;4258422;33;34048;-68
2023/05/24 09:20:09;;;;;;;9.30;7.00;;;;;;;25.49;44.38;99584.88;4259751;33;33512;-68
2023/05/24 09:22:39;;;;;;;9.95;6.60;;;;;;;25.50;44.42;99577.50;4258592;33;33812;-68
2023/05/24 09:25:10;;;;;;;9.55;6.22;;;;;;;25.51;44.41;99590.94;4270008;33;34043;-68
2023/05/24 09:27:37;;;;;;;9.75;6.18;;;;;;;25.51;44.40;99579.16;4259657;33;33841;-68
2023/05/24 09:30:09;;;;;;;8.48;6.40;;;;;;;25.52;44.38;99584.41;4260007;33;33694;-68
2023/05/24 09:32:37;;;;;;;10.18;6.45;;;;;;;25.53;44.32;99583.31;4259561;33;34550;-67
2023/05/24 09:35:11;;;;;;;12.60;6.28;;;;;;;25.54;44.34;99589.63;4258416;33;34755;-68
2023/05/24 09:37:39;;;;;;;9.98;6.12;;;;;;;25.55;44.30;99577.59;4258218;33;33810;-68
2023/05/24 09:40:17;;;;;;;10.40;6.18;;;;;;;25.54;44.22;99574.06;4259544;33;34134;-68
2023/05/24 09:42:45;;;;;;;9.18;6.43;;;;;;;25.54;44.32;99574.06;4270072;33;34666;-67
2023/05/24 09:45:12;;;;;;;7.18;5.82;;;;;;;25.55;44.35;99577.59;4259335;33;34061;-68
2023/05/24 09:47:41;;;;;;;8.45;6.30;;;;;;;25.56;44.34;99582.84;4259486;33;33962;-68
2023/05/24 09:50:13;;;;;;;8.00;6.00;;;;;;;25.56;44.33;99585.56;4258465;33;33504;-68
2023/05/24 09:52:41;;;;;;;8.68;6.30;;;;;;;25.56;44.32;99591.03;4270003;33;34109;-68
2023/05/24 09:55:22;;;;;;;8.35;5.82;;;;;;;25.58;44.31;99586.16;4259381;33;34268;-68
2023/05/24 09:58:01;;;;;;;7.55;6.03;;;;;;;25.59;44.31;99585.06;4254893;33;33810;-68
2023/05/24 10:00:29;;;;;;;9.30;6.65;;;;;;;25.58;44.32;99580.69;4259935;33;34517;-68
2023/05/24 10:03:01;;;;;;;8.18;5.80;;;;;;;25.60;44.29;99583.16;4261037;33;34362;-68
2023/05/24 10:05:30;;;;;;;7.78;5.97;;;;;;;25.59;44.31;99590.53;4236753;33;33112;-68
2023/05/24 10:07:58;;;;;;;7.60;5.55;;;;;;;25.60;44.29;99586.75;4236601;33;34067;-68
2023/05/24 10:10:27;;;;;;;7.60;5.90;;;;;;;25.60;44.30;99597.69;4260870;33;34322;-67
2023/05/24 10:12:55;;;;;;;7.00;5.95;;;;;;;25.60;44.32;99589.47;4248264;33;34597;-68
2023/05/24 10:15:24;;;;;;;7.65;5.35;;;;;;;25.62;44.29;99592.78;4259677;33;34017;-68
2023/05/24 10:17:52;;;;;;;7.70;5.93;;;;;;;25.61;44.26;99588.41;4248175;33;34293;-68
2023/05/24 10:20:19;;;;;;;7.82;5.70;;;;;;;25.62;44.24;99592.78;4236689;33;34192;-68
2023/05/24 10:22:51;;;;;;;8.07;5.85;;;;;;;25.63;44.25;99599.06;4260959;33;33797;-68
2023/05/24 10:25:24;;;;;;;7.78;5.53;;;;;;;25.63;44.25;99586.22;4259781;33;33934;-68
2023/05/24 10:28:00;;;;;;;6.40;5.22;;;;;;;25.64;44.23;99600.72;4259782;33;33968;-67
2023/05/24 10:30:34;;;;;;;9.13;5.60;;;;;;;25.66;44.11;99593.94;4236306;33;33400;-68
2023/05/24 10:33:03;;;;;;;7.30;5.62;;;;;;;25.64;44.17;99587.88;4247898;33;34543;-69
2023/05/24 10:35:31;;;;;;;10.32;5.80;;;;;;;25.65;43.87;99578.62;4248203;33;33983;-69
2023/05/24 10:37:58;;;;;;;10.45;6.20;;;;;;;25.67;43.83;99583.84;4259596;33;33960;-69
2023/05/24 10:40:26;;;;;;;6.53;5.72;;;;;;;25.66;43.83;99584.94;4260897;33;33637;-69
2023/05/24 10:42:54;;;;;;;7.53;5.30;;;;;;;25.68;43.83;99589.06;4260737;33;34708;-69
2023/05/24 10:45:25;;;;;;;7.57;5.50;;;;;;;25.67;43.92;99576.47;4236330;33;33636;-68
2023/05/24 10:47:53;;;;;;;8.48;5.50;;;;;;;25.67;43.97;99575.66;4260703;33;33818;-69
2023/05/24 10:50:21;;;;;;;9.00;5.85;;;;;;;25.68;43.98;99571.84;4260643;33;33504;-69
2023/05/24 10:52:48;;;;;;;6.65;4.70;;;;;;;25.69;43.99;99570.75;4250405;33;34602;-68
2023/05/24 10:55:18;;;;;;;7.82;5.97;;;;;;;25.69;44.01;99576.22;4246803;33;34926;-68
2023/05/24 10:57:46;;;;;;;6.30;5.28;;;;;;;25.69;44.01;99573.47;4246392;33;34936;-68
2023/05/24 11:00:19;;;;;;;8.70;5.78;;;;;;;25.70;43.94;99576.00;4246600;33;32441;-69
2023/05/24 11:03:07;;;;;;;8.25;5.82;;;;;;;25.72;43.91;99570.25;4246462;33;33994;-69
2023/05/24 11:05:55;;;;;;;7.57;5.37;;;;;;;25.72;43.91;99570.25;4245437;33;34795;-69
2023/05/24 11:08:32;;;;;;;10.98;5.60;;;;;;;25.73;43.91;99566.44;4246036;33;33920;-68
2023/05/24 11:11:05;;;;;;;7.80;5.28;;;;;;;25.76;43.87;99570.62;4245323;33;33575;-69
2023/05/24 11:13:55;;;;;;;10.70;5.68;;;;;;;25.74;43.92;99568.13;4246466;33;34091;-68
2023/05/24 11:16:32;;;;;;;6.43;5.03;;;;;;;25.74;43.94;99579.06;4260313;33;34041;-69
2023/05/24 11:19:11;;;;;;;7.50;5.53;;;;;;;25.76;43.94;99565.16;4259319;33;33512;-68
2023/05/24 11:21:40;;;;;;;8.75;5.55;;;;;;;25.75;43.97;99558.03;4260631;33;34098;-70
2023/05/24 11:24:08;;;;;;;7.07;5.50;;;;;;;25.75;44.00;99558.84;4260451;33;33766;-69
2023/05/24 11:26:35;;;;;;;7.50;5.95;;;;;;;25.77;43.71;99570.38;4260657;33;34718;-68
2023/05/24 11:29:04;;;;;;;7.62;5.10;;;;;;;25.76;43.32;99555.06;4259225;33;33723;-69
2023/05/24 11:31:32;;;;;;;6.85;5.80;;;;;;;25.76;43.33;99555.06;4260415;33;33316;-68
2023/05/24 11:34:00;;;;;;;7.50;5.25;;;;;;;25.77;43.33;99556.72;4250420;33;34284;-69
2023/05/24 11:36:27;;;;;;;7.55;5.03;;;;;;;25.77;43.49;99556.72;4246392;33;33806;-69
2023/05/24 11:38:56;;;;;;;7.65;5.20;;;;;;;25.78;43.58;99547.44;4246305;33;33878;-68
2023/05/24 11:41:23;;;;;;;6.68;5.10;;;;;;;25.77;43.61;99545.78;4245109;33;33266;-69